sensor_id;sensor_type;location;lat;lon;timestamp;temperature;humidity
19755;DHT22;10036;47.812;9.274;2023-02-22T00:01:09;3.00;99.90
19755;DHT22;10036;47.812;9.274;2023-02-22T00:03:48;2.90;99.90
19755;DHT22;10036;47.812;9.274;2023-02-22T00:06:16;2.90;99.90
19755;DHT22;10036;47.812;9.274;2023-02-22T00:08:46;2.80;99.90
19755;DHT22;10036;47.812;9.274;2023-02-22T00:11:14;2.70;99.90
19755;DHT22;10036;47.812;9.274;2023-02-22T00:13:41;2.60;99.90
19755;DHT22;10036;47.812;9.274;2023-02-22T00:16:13;2.50;99.90
19755;DHT22;10036;47.812;9.274;2023-02-22T00:18:40;2.50;99.90
19755;DHT22;10036;47.812;9.274;2023-02-22T00:21:09;2.50;99.90
19755;DHT22;10036;47.812;9.274;2023-02-22T00:23:39;2.40;99.90
19755;DHT22;10036;47.812;9.274;2023-02-22T00:26:09;2.40;99.90
19755;DHT22;10036;47.812;9.274;2023-02-22T00:28:36;2.30;99.90
19755;DHT22;10036;47.812;9.274;2023-02-22T00:31:03;2.30;99.90
19755;DHT22;10036;47.812;9.274;2023-02-22T00:33:31;2.30;99.90
19755;DHT22;10036;47.812;9.274;2023-02-22T00:35:58;2.30;99.90
19755;DHT22;10036;47.812;9.274;2023-02-22T00:38:25;2.20;99.90
19755;DHT22;10036;47.812;9.274;2023-02-22T00:40:52;2.20;99.90
19755;DHT22;10036;47.812;9.274;2023-02-22T00:43:21;2.10;99.90
19755;DHT22;10036;47.812;9.274;2023-02-22T00:45:49;2.10;99.90
19755;DHT22;10036;47.812;9.274;2023-02-22T00:48:16;2.10;99.90
19755;DHT22;10036;47.812;9.274;2023-02-22T00:50:44;2.00;99.90
19755;DHT22;10036;47.812;9.274;2023-02-22T00:53:13;2.00;99.90
19755;DHT22;10036;47.812;9.274;2023-02-22T00:55:40;2.00;99.90
19755;DHT22;10036;47.812;9.274;2023-02-22T00:58:07;2.10;99.90
19755;DHT22;10036;47.812;9.274;2023-02-22T01:00:37;2.20;99.90
19755;DHT22;10036;47.812;9.274;2023-02-22T01:03:05;2.20;99.90
19755;DHT22;10036;47.812;9.274;2023-02-22T01:05:32;2.20;99.90
19755;DHT22;10036;47.812;9.274;2023-02-22T01:08:00;2.10;99.90
19755;DHT22;10036;47.812;9.274;2023-02-22T01:10:29;2.10;99.90
19755;DHT22;10036;47.812;9.274;2023-02-22T01:12:57;2.00;99.90
19755;DHT22;10036;47.812;9.274;2023-02-22T01:15:26;1.90;99.90
19755;DHT22;10036;47.812;9.274;2023-02-22T01:17:54;2.00;99.90
19755;DHT22;10036;47.812;9.274;2023-02-22T01:20:23;2.10;99.90
19755;DHT22;10036;47.812;9.274;2023-02-22T01:22:52;2.10;99.90
19755;DHT22;10036;47.812;9.274;2023-02-22T01:25:21;2.10;99.90
19755;DHT22;10036;47.812;9.274;2023-02-22T01:27:49;2.00;99.90
19755;DHT22;10036;47.812;9.274;2023-02-22T01:30:20;1.90;99.90
19755;DHT22;10036;47.812;9.274;2023-02-22T01:32:47;1.90;99.90
19755;DHT22;10036;47.812;9.274;2023-02-22T01:35:19;1.80;99.90
19755;DHT22;10036;47.812;9.274;2023-02-22T01:37:46;1.80;99.90
19755;DHT22;10036;47.812;9.274;2023-02-22T01:40:16;1.70;99.90
19755;DHT22;10036;47.812;9.274;2023-02-22T01:42:46;1.70;99.90
19755;DHT22;10036;47.812;9.274;2023-02-22T01:45:44;2.00;99.90
19755;DHT22;10036;47.812;9.274;2023-02-22T01:48:17;2.20;99.90
19755;DHT22;10036;47.812;9.274;2023-02-22T01:50:52;2.20;99.90
19755;DHT22;10036;47.812;9.274;2023-02-22T01:53:22;2.30;99.90
19755;DHT22;10036;47.812;9.274;2023-02-22T01:55:51;2.20;99.90
19755;DHT22;10036;47.812;9.274;2023-02-22T01:58:21;2.10;99.90
19755;DHT22;10036;47.812;9.274;2023-02-22T02:00:50;2.10;99.90
19755;DHT22;10036;47.812;9.274;2023-02-22T02:03:20;1.90;99.90
19755;DHT22;10036;47.812;9.274;2023-02-22T02:05:51;1.70;99.90
19755;DHT22;10036;47.812;9.274;2023-02-22T02:08:26;1.80;99.90
19755;DHT22;10036;47.812;9.274;2023-02-22T02:10:55;1.80;99.90
19755;DHT22;10036;47.812;9.274;2023-02-22T02:13:23;1.70;99.90
19755;DHT22;10036;47.812;9.274;2023-02-22T02:15:53;1.60;99.90
19755;DHT22;10036;47.812;9.274;2023-02-22T02:18:20;1.50;99.90
19755;DHT22;10036;47.812;9.274;2023-02-22T02:27:13;1.50;99.90
19755;DHT22;10036;47.812;9.274;2023-02-22T02:32:55;1.70;99.90
19755;DHT22;10036;47.812;9.274;2023-02-22T02:35:31;1.70;99.90
19755;DHT22;10036;47.812;9.274;2023-02-22T02:38:06;1.70;99.90
19755;DHT22;10036;47.812;9.274;2023-02-22T02:40:40;1.60;99.90
19755;DHT22;10036;47.812;9.274;2023-02-22T02:43:14;1.60;99.90
19755;DHT22;10036;47.812;9.274;2023-02-22T02:45:46;1.50;99.90
19755;DHT22;10036;47.812;9.274;2023-02-22T02:48:17;1.50;99.90
19755;DHT22;10036;47.812;9.274;2023-02-22T02:50:47;1.70;99.90
19755;DHT22;10036;47.812;9.274;2023-02-22T02:53:18;1.80;99.90
19755;DHT22;10036;47.812;9.274;2023-02-22T02:55:46;2.00;99.90
19755;DHT22;10036;47.812;9.274;2023-02-22T02:58:17;2.00;99.90
19755;DHT22;10036;47.812;9.274;2023-02-22T03:00:45;2.10;99.90
19755;DHT22;10036;47.812;9.274;2023-02-22T03:03:45;2.10;99.90
19755;DHT22;10036;47.812;9.274;2023-02-22T03:06:40;2.00;99.90
19755;DHT22;10036;47.812;9.274;2023-02-22T03:09:14;1.70;99.90
19755;DHT22;10036;47.812;9.274;2023-02-22T03:11:52;1.50;99.90
19755;DHT22;10036;47.812;9.274;2023-02-22T03:14:31;1.40;99.90
19755;DHT22;10036;47.812;9.274;2023-02-22T03:17:13;1.30;99.90
19755;DHT22;10036;47.812;9.274;2023-02-22T03:19:50;1.30;99.90
19755;DHT22;10036;47.812;9.274;2023-02-22T03:22:23;1.20;99.90
19755;DHT22;10036;47.812;9.274;2023-02-22T03:24:55;1.10;99.90
19755;DHT22;10036;47.812;9.274;2023-02-22T03:27:27;1.20;99.90
19755;DHT22;10036;47.812;9.274;2023-02-22T03:29:57;1.20;99.90
19755;DHT22;10036;47.812;9.274;2023-02-22T03:32:29;1.20;99.90
19755;DHT22;10036;47.812;9.274;2023-02-22T03:35:03;1.00;99.90
19755;DHT22;10036;47.812;9.274;2023-02-22T03:37:35;1.00;99.90
19755;DHT22;10036;47.812;9.274;2023-02-22T03:40:06;1.20;99.90
19755;DHT22;10036;47.812;9.274;2023-02-22T03:42:40;1.40;99.90
19755;DHT22;10036;47.812;9.274;2023-02-22T03:45:10;1.60;99.90
19755;DHT22;10036;47.812;9.274;2023-02-22T03:47:42;1.50;99.90
19755;DHT22;10036;47.812;9.274;2023-02-22T03:50:14;1.30;99.90
19755;DHT22;10036;47.812;9.274;2023-02-22T03:52:43;1.20;99.90
19755;DHT22;10036;47.812;9.274;2023-02-22T03:55:12;1.30;99.90
19755;DHT22;10036;47.812;9.274;2023-02-22T03:57:45;1.40;99.90
19755;DHT22;10036;47.812;9.274;2023-02-22T04:00:15;1.20;99.90
19755;DHT22;10036;47.812;9.274;2023-02-22T04:02:43;1.10;99.90
19755;DHT22;10036;47.812;9.274;2023-02-22T04:05:11;1.10;99.90
19755;DHT22;10036;47.812;9.274;2023-02-22T04:07:39;1.10;99.90
19755;DHT22;10036;47.812;9.274;2023-02-22T04:10:06;1.10;99.90
19755;DHT22;10036;47.812;9.274;2023-02-22T04:12:33;1.10;99.90
19755;DHT22;10036;47.812;9.274;2023-02-22T04:15:00;1.10;99.90
19755;DHT22;10036;47.812;9.274;2023-02-22T04:17:27;1.00;99.90
19755;DHT22;10036;47.812;9.274;2023-02-22T04:19:54;0.90;99.90
19755;DHT22;10036;47.812;9.274;2023-02-22T04:22:23;0.90;99.90
19755;DHT22;10036;47.812;9.274;2023-02-22T04:24:49;0.80;99.90
19755;DHT22;10036;47.812;9.274;2023-02-22T04:27:16;0.70;99.90
19755;DHT22;10036;47.812;9.274;2023-02-22T04:29:43;0.60;99.90
19755;DHT22;10036;47.812;9.274;2023-02-22T04:32:10;0.60;99.90
19755;DHT22;10036;47.812;9.274;2023-02-22T04:34:37;0.60;99.90
19755;DHT22;10036;47.812;9.274;2023-02-22T04:37:04;0.60;99.90
19755;DHT22;10036;47.812;9.274;2023-02-22T04:39:33;0.50;99.90
19755;DHT22;10036;47.812;9.274;2023-02-22T04:42:00;0.50;99.90
19755;DHT22;10036;47.812;9.274;2023-02-22T04:44:27;0.60;99.90
19755;DHT22;10036;47.812;9.274;2023-02-22T04:46:54;0.60;99.90
19755;DHT22;10036;47.812;9.274;2023-02-22T04:49:21;0.50;99.90
19755;DHT22;10036;47.812;9.274;2023-02-22T04:51:48;0.60;99.90
19755;DHT22;10036;47.812;9.274;2023-02-22T04:54:15;0.70;99.90
19755;DHT22;10036;47.812;9.274;2023-02-22T04:56:43;1.00;99.90
19755;DHT22;10036;47.812;9.274;2023-02-22T04:59:10;1.00;99.90
19755;DHT22;10036;47.812;9.274;2023-02-22T05:01:37;1.00;99.90
19755;DHT22;10036;47.812;9.274;2023-02-22T05:04:05;0.80;99.90
19755;DHT22;10036;47.812;9.274;2023-02-22T05:06:32;0.80;99.90
19755;DHT22;10036;47.812;9.274;2023-02-22T05:09:00;0.70;99.90
19755;DHT22;10036;47.812;9.274;2023-02-22T05:11:27;0.80;99.90
19755;DHT22;10036;47.812;9.274;2023-02-22T05:13:55;0.80;99.90
19755;DHT22;10036;47.812;9.274;2023-02-22T05:16:22;0.70;99.90
19755;DHT22;10036;47.812;9.274;2023-02-22T05:18:49;0.70;99.90
19755;DHT22;10036;47.812;9.274;2023-02-22T05:21:16;0.70;99.90
19755;DHT22;10036;47.812;9.274;2023-02-22T05:23:46;0.80;99.90
19755;DHT22;10036;47.812;9.274;2023-02-22T05:26:12;1.00;99.90
19755;DHT22;10036;47.812;9.274;2023-02-22T05:28:39;1.10;99.90
19755;DHT22;10036;47.812;9.274;2023-02-22T05:31:07;1.20;99.90
19755;DHT22;10036;47.812;9.274;2023-02-22T05:33:36;1.30;99.90
19755;DHT22;10036;47.812;9.274;2023-02-22T05:36:04;1.30;99.90
19755;DHT22;10036;47.812;9.274;2023-02-22T05:38:32;1.20;99.90
19755;DHT22;10036;47.812;9.274;2023-02-22T05:40:59;1.00;99.90
19755;DHT22;10036;47.812;9.274;2023-02-22T05:43:26;0.80;99.90
19755;DHT22;10036;47.812;9.274;2023-02-22T05:45:53;0.70;99.90
19755;DHT22;10036;47.812;9.274;2023-02-22T05:48:21;0.60;99.90
19755;DHT22;10036;47.812;9.274;2023-02-22T05:50:48;0.50;99.90
19755;DHT22;10036;47.812;9.274;2023-02-22T05:53:15;0.40;99.90
19755;DHT22;10036;47.812;9.274;2023-02-22T05:55:42;0.40;99.90
19755;DHT22;10036;47.812;9.274;2023-02-22T05:58:09;0.50;99.90
19755;DHT22;10036;47.812;9.274;2023-02-22T06:00:36;0.70;99.90
19755;DHT22;10036;47.812;9.274;2023-02-22T06:03:04;0.60;99.90
19755;DHT22;10036;47.812;9.274;2023-02-22T06:05:32;0.60;99.90
19755;DHT22;10036;47.812;9.274;2023-02-22T06:07:59;0.60;99.90
19755;DHT22;10036;47.812;9.274;2023-02-22T06:10:27;0.60;99.90
19755;DHT22;10036;47.812;9.274;2023-02-22T06:12:54;0.60;99.90
19755;DHT22;10036;47.812;9.274;2023-02-22T06:15:22;0.80;99.90
19755;DHT22;10036;47.812;9.274;2023-02-22T06:17:50;0.70;99.90
19755;DHT22;10036;47.812;9.274;2023-02-22T06:20:19;0.70;99.90
19755;DHT22;10036;47.812;9.274;2023-02-22T06:22:48;0.90;99.90
19755;DHT22;10036;47.812;9.274;2023-02-22T06:25:17;1.10;99.90
19755;DHT22;10036;47.812;9.274;2023-02-22T06:27:44;1.20;99.90
19755;DHT22;10036;47.812;9.274;2023-02-22T06:30:14;1.00;99.90
19755;DHT22;10036;47.812;9.274;2023-02-22T06:32:42;1.00;99.90
19755;DHT22;10036;47.812;9.274;2023-02-22T06:35:09;1.00;99.90
19755;DHT22;10036;47.812;9.274;2023-02-22T06:37:36;1.10;99.90
19755;DHT22;10036;47.812;9.274;2023-02-22T06:40:05;1.10;99.90
19755;DHT22;10036;47.812;9.274;2023-02-22T06:42:32;1.20;99.90
19755;DHT22;10036;47.812;9.274;2023-02-22T06:44:59;1.40;99.90
19755;DHT22;10036;47.812;9.274;2023-02-22T06:47:26;1.50;99.90
19755;DHT22;10036;47.812;9.274;2023-02-22T06:49:54;1.40;99.90
19755;DHT22;10036;47.812;9.274;2023-02-22T06:52:24;1.40;99.90
19755;DHT22;10036;47.812;9.274;2023-02-22T06:54:51;1.40;99.90
19755;DHT22;10036;47.812;9.274;2023-02-22T06:57:22;1.40;99.90
19755;DHT22;10036;47.812;9.274;2023-02-22T06:59:51;1.30;99.90
19755;DHT22;10036;47.812;9.274;2023-02-22T07:02:18;1.30;99.90
19755;DHT22;10036;47.812;9.274;2023-02-22T07:04:47;1.30;99.90
19755;DHT22;10036;47.812;9.274;2023-02-22T07:07:14;1.40;99.90
19755;DHT22;10036;47.812;9.274;2023-02-22T07:09:41;1.30;99.90
19755;DHT22;10036;47.812;9.274;2023-02-22T07:12:11;1.30;99.90
19755;DHT22;10036;47.812;9.274;2023-02-22T07:14:39;1.40;99.90
19755;DHT22;10036;47.812;9.274;2023-02-22T07:17:08;1.60;99.90
19755;DHT22;10036;47.812;9.274;2023-02-22T07:19:36;1.60;99.90
19755;DHT22;10036;47.812;9.274;2023-02-22T07:22:02;1.70;99.90
19755;DHT22;10036;47.812;9.274;2023-02-22T07:24:30;1.80;99.90
19755;DHT22;10036;47.812;9.274;2023-02-22T07:27:00;1.80;99.90
19755;DHT22;10036;47.812;9.274;2023-02-22T07:29:27;1.80;99.90
19755;DHT22;10036;47.812;9.274;2023-02-22T07:31:56;1.90;99.90
19755;DHT22;10036;47.812;9.274;2023-02-22T07:34:24;1.90;99.90
19755;DHT22;10036;47.812;9.274;2023-02-22T07:36:51;1.90;99.90
19755;DHT22;10036;47.812;9.274;2023-02-22T07:39:18;2.10;99.90
19755;DHT22;10036;47.812;9.274;2023-02-22T07:41:45;2.10;99.90
19755;DHT22;10036;47.812;9.274;2023-02-22T07:44:14;2.20;99.90
19755;DHT22;10036;47.812;9.274;2023-02-22T07:46:46;2.20;99.90
19755;DHT22;10036;47.812;9.274;2023-02-22T07:49:14;2.20;99.90
19755;DHT22;10036;47.812;9.274;2023-02-22T07:51:41;2.30;99.90
19755;DHT22;10036;47.812;9.274;2023-02-22T07:54:08;2.40;99.90
19755;DHT22;10036;47.812;9.274;2023-02-22T07:56:35;2.40;99.90
19755;DHT22;10036;47.812;9.274;2023-02-22T07:59:02;2.50;99.90
19755;DHT22;10036;47.812;9.274;2023-02-22T08:01:29;2.50;99.90
19755;DHT22;10036;47.812;9.274;2023-02-22T08:03:58;2.60;99.90
19755;DHT22;10036;47.812;9.274;2023-02-22T08:06:26;2.60;99.90
19755;DHT22;10036;47.812;9.274;2023-02-22T08:08:56;2.60;99.90
19755;DHT22;10036;47.812;9.274;2023-02-22T08:11:23;2.60;99.90
19755;DHT22;10036;47.812;9.274;2023-02-22T08:13:53;2.70;99.90
19755;DHT22;10036;47.812;9.274;2023-02-22T08:16:19;2.80;99.90
19755;DHT22;10036;47.812;9.274;2023-02-22T08:18:46;2.80;99.90
19755;DHT22;10036;47.812;9.274;2023-02-22T08:21:13;2.80;99.90
19755;DHT22;10036;47.812;9.274;2023-02-22T08:23:44;2.80;99.90
19755;DHT22;10036;47.812;9.274;2023-02-22T08:26:11;2.80;99.90
19755;DHT22;10036;47.812;9.274;2023-02-22T08:28:40;2.80;99.90
19755;DHT22;10036;47.812;9.274;2023-02-22T08:31:07;2.90;99.90
19755;DHT22;10036;47.812;9.274;2023-02-22T08:33:35;3.00;99.90
19755;DHT22;10036;47.812;9.274;2023-02-22T08:36:02;3.10;99.90
19755;DHT22;10036;47.812;9.274;2023-02-22T08:38:30;3.20;99.90
19755;DHT22;10036;47.812;9.274;2023-02-22T08:40:59;3.30;99.90
19755;DHT22;10036;47.812;9.274;2023-02-22T08:43:26;3.30;99.90
19755;DHT22;10036;47.812;9.274;2023-02-22T08:45:54;3.40;99.90
19755;DHT22;10036;47.812;9.274;2023-02-22T08:48:20;3.50;99.90
19755;DHT22;10036;47.812;9.274;2023-02-22T08:50:47;3.60;99.90
19755;DHT22;10036;47.812;9.274;2023-02-22T08:53:15;3.70;99.90
19755;DHT22;10036;47.812;9.274;2023-02-22T08:55:42;3.80;99.90
19755;DHT22;10036;47.812;9.274;2023-02-22T08:58:10;3.80;99.90
19755;DHT22;10036;47.812;9.274;2023-02-22T09:00:38;3.80;99.90
19755;DHT22;10036;47.812;9.274;2023-02-22T09:03:07;3.90;99.90
19755;DHT22;10036;47.812;9.274;2023-02-22T09:05:35;4.00;99.90
19755;DHT22;10036;47.812;9.274;2023-02-22T09:08:03;4.10;99.90
19755;DHT22;10036;47.812;9.274;2023-02-22T09:10:32;4.20;99.90
19755;DHT22;10036;47.812;9.274;2023-02-22T09:12:59;4.30;99.90
19755;DHT22;10036;47.812;9.274;2023-02-22T09:15:29;4.30;99.90
19755;DHT22;10036;47.812;9.274;2023-02-22T09:17:56;4.50;99.90
19755;DHT22;10036;47.812;9.274;2023-02-22T09:20:24;4.60;99.90
19755;DHT22;10036;47.812;9.274;2023-02-22T09:22:51;4.70;99.90
19755;DHT22;10036;47.812;9.274;2023-02-22T09:25:22;4.70;99.90
19755;DHT22;10036;47.812;9.274;2023-02-22T09:27:50;4.80;99.90
19755;DHT22;10036;47.812;9.274;2023-02-22T09:30:21;4.80;99.90
19755;DHT22;10036;47.812;9.274;2023-02-22T09:32:51;4.80;99.90
19755;DHT22;10036;47.812;9.274;2023-02-22T09:35:19;4.90;99.90
19755;DHT22;10036;47.812;9.274;2023-02-22T09:37:52;5.00;99.90
19755;DHT22;10036;47.812;9.274;2023-02-22T09:40:19;5.10;99.90
19755;DHT22;10036;47.812;9.274;2023-02-22T09:42:59;5.10;99.90
19755;DHT22;10036;47.812;9.274;2023-02-22T09:45:31;5.20;99.90
19755;DHT22;10036;47.812;9.274;2023-02-22T09:48:06;5.20;99.90
19755;DHT22;10036;47.812;9.274;2023-02-22T09:50:36;5.40;99.90
19755;DHT22;10036;47.812;9.274;2023-02-22T09:53:05;5.60;99.90
19755;DHT22;10036;47.812;9.274;2023-02-22T09:55:36;5.60;99.90
19755;DHT22;10036;47.812;9.274;2023-02-22T09:58:12;5.60;99.90
19755;DHT22;10036;47.812;9.274;2023-02-22T10:00:42;5.70;99.90
19755;DHT22;10036;47.812;9.274;2023-02-22T10:03:21;5.80;99.90
19755;DHT22;10036;47.812;9.274;2023-02-22T10:05:53;5.90;99.90
19755;DHT22;10036;47.812;9.274;2023-02-22T10:08:27;6.00;99.90
19755;DHT22;10036;47.812;9.274;2023-02-22T10:11:01;6.10;99.90
19755;DHT22;10036;47.812;9.274;2023-02-22T10:13:37;6.20;99.90
19755;DHT22;10036;47.812;9.274;2023-02-22T10:16:10;6.40;99.90
19755;DHT22;10036;47.812;9.274;2023-02-22T10:19:02;6.50;99.90
19755;DHT22;10036;47.812;9.274;2023-02-22T10:21:46;6.60;99.90
19755;DHT22;10036;47.812;9.274;2023-02-22T10:24:27;6.60;99.90
19755;DHT22;10036;47.812;9.274;2023-02-22T10:27:00;6.70;99.90
19755;DHT22;10036;47.812;9.274;2023-02-22T10:29:31;6.80;99.90
19755;DHT22;10036;47.812;9.274;2023-02-22T10:32:03;6.80;99.90
19755;DHT22;10036;47.812;9.274;2023-02-22T10:34:35;6.90;99.90
19755;DHT22;10036;47.812;9.274;2023-02-22T10:37:18;6.90;99.90
19755;DHT22;10036;47.812;9.274;2023-02-22T10:39:47;7.00;99.90
19755;DHT22;10036;47.812;9.274;2023-02-22T10:42:14;7.00;99.90
19755;DHT22;10036;47.812;9.274;2023-02-22T10:44:41;7.00;99.90
19755;DHT22;10036;47.812;9.274;2023-02-22T10:47:10;7.10;99.90
19755;DHT22;10036;47.812;9.274;2023-02-22T10:49:45;7.20;99.90
19755;DHT22;10036;47.812;9.274;2023-02-22T10:52:15;7.30;99.90
19755;DHT22;10036;47.812;9.274;2023-02-22T10:54:45;7.40;99.90
19755;DHT22;10036;47.812;9.274;2023-02-22T10:57:19;7.60;99.90
19755;DHT22;10036;47.812;9.274;2023-02-22T10:59:46;7.70;99.90
19755;DHT22;10036;47.812;9.274;2023-02-22T11:02:18;7.80;99.90
19755;DHT22;10036;47.812;9.274;2023-02-22T11:04:49;7.90;99.90
19755;DHT22;10036;47.812;9.274;2023-02-22T11:07:20;8.00;99.90
19755;DHT22;10036;47.812;9.274;2023-02-22T11:09:50;8.10;99.90
19755;DHT22;10036;47.812;9.274;2023-02-22T11:12:20;8.10;99.90
19755;DHT22;10036;47.812;9.274;2023-02-22T11:14:47;8.20;99.90
19755;DHT22;10036;47.812;9.274;2023-02-22T11:17:21;8.30;99.90
19755;DHT22;10036;47.812;9.274;2023-02-22T11:19:51;8.50;99.90
19755;DHT22;10036;47.812;9.274;2023-02-22T11:22:21;8.70;99.90
19755;DHT22;10036;47.812;9.274;2023-02-22T11:24:50;9.00;99.90
19755;DHT22;10036;47.812;9.274;2023-02-22T11:27:26;9.10;99.90
19755;DHT22;10036;47.812;9.274;2023-02-22T11:29:55;9.30;99.90
19755;DHT22;10036;47.812;9.274;2023-02-22T11:32:25;9.50;99.90
19755;DHT22;10036;47.812;9.274;2023-02-22T11:34:54;9.70;99.90
19755;DHT22;10036;47.812;9.274;2023-02-22T11:37:41;9.90;99.90
19755;DHT22;10036;47.812;9.274;2023-02-22T11:40:16;9.90;99.90
19755;DHT22;10036;47.812;9.274;2023-02-22T11:42:45;10.00;99.90
19755;DHT22;10036;47.812;9.274;2023-02-22T11:45:15;10.10;99.90
19755;DHT22;10036;47.812;9.274;2023-02-22T11:47:50;10.20;99.90
19755;DHT22;10036;47.812;9.274;2023-02-22T11:50:26;10.20;99.90
19755;DHT22;10036;47.812;9.274;2023-02-22T11:53:07;10.30;99.90
19755;DHT22;10036;47.812;9.274;2023-02-22T11:55:41;10.30;99.90
19755;DHT22;10036;47.812;9.274;2023-02-22T11:58:28;10.40;99.90
19755;DHT22;10036;47.812;9.274;2023-02-22T12:01:04;10.40;99.90
19755;DHT22;10036;47.812;9.274;2023-02-22T12:03:48;10.50;99.90
19755;DHT22;10036;47.812;9.274;2023-02-22T12:06:30;10.70;99.90
19755;DHT22;10036;47.812;9.274;2023-02-22T12:09:09;10.80;99.90
19755;DHT22;10036;47.812;9.274;2023-02-22T12:11:44;10.80;99.90
19755;DHT22;10036;47.812;9.274;2023-02-22T12:14:23;10.90;99.90
19755;DHT22;10036;47.812;9.274;2023-02-22T12:17:10;11.00;99.90
19755;DHT22;10036;47.812;9.274;2023-02-22T12:19:46;11.10;99.90
19755;DHT22;10036;47.812;9.274;2023-02-22T12:22:18;11.20;99.90
19755;DHT22;10036;47.812;9.274;2023-02-22T12:24:50;11.20;99.90
19755;DHT22;10036;47.812;9.274;2023-02-22T12:27:22;11.30;99.90
19755;DHT22;10036;47.812;9.274;2023-02-22T12:29:54;11.30;99.90
19755;DHT22;10036;47.812;9.274;2023-02-22T12:32:28;11.40;99.90
19755;DHT22;10036;47.812;9.274;2023-02-22T12:35:01;11.60;99.90
19755;DHT22;10036;47.812;9.274;2023-02-22T12:37:36;11.60;99.90
19755;DHT22;10036;47.812;9.274;2023-02-22T12:40:12;11.60;99.90
19755;DHT22;10036;47.812;9.274;2023-02-22T12:42:48;11.50;99.90
19755;DHT22;10036;47.812;9.274;2023-02-22T12:45:27;11.40;99.90
19755;DHT22;10036;47.812;9.274;2023-02-22T12:48:03;11.40;99.90
19755;DHT22;10036;47.812;9.274;2023-02-22T12:50:34;11.50;99.90
19755;DHT22;10036;47.812;9.274;2023-02-22T12:53:12;11.50;99.90
19755;DHT22;10036;47.812;9.274;2023-02-22T12:55:43;11.60;99.90
19755;DHT22;10036;47.812;9.274;2023-02-22T12:58:20;11.70;99.90
19755;DHT22;10036;47.812;9.274;2023-02-22T13:00:54;11.70;99.90
19755;DHT22;10036;47.812;9.274;2023-02-22T13:03:30;11.70;99.90
19755;DHT22;10036;47.812;9.274;2023-02-22T13:06:13;11.80;99.90
19755;DHT22;10036;47.812;9.274;2023-02-22T13:08:55;11.90;99.90
19755;DHT22;10036;47.812;9.274;2023-02-22T13:11:30;11.80;99.90
19755;DHT22;10036;47.812;9.274;2023-02-22T13:14:11;11.80;99.90
19755;DHT22;10036;47.812;9.274;2023-02-22T13:16:45;11.80;99.90
19755;DHT22;10036;47.812;9.274;2023-02-22T13:19:29;11.80;99.90
19755;DHT22;10036;47.812;9.274;2023-02-22T13:22:04;11.80;99.90
19755;DHT22;10036;47.812;9.274;2023-02-22T13:24:42;11.90;99.90
19755;DHT22;10036;47.812;9.274;2023-02-22T13:27:13;11.90;99.90
19755;DHT22;10036;47.812;9.274;2023-02-22T13:29:45;11.90;99.90
19755;DHT22;10036;47.812;9.274;2023-02-22T13:32:23;11.90;99.90
19755;DHT22;10036;47.812;9.274;2023-02-22T13:35:04;11.90;99.90
19755;DHT22;10036;47.812;9.274;2023-02-22T13:37:57;12.10;99.90
19755;DHT22;10036;47.812;9.274;2023-02-22T13:40:56;12.20;99.90
19755;DHT22;10036;47.812;9.274;2023-02-22T13:47:02;12.40;99.90
19755;DHT22;10036;47.812;9.274;2023-02-22T13:52:31;12.50;99.90
19755;DHT22;10036;47.812;9.274;2023-02-22T13:55:01;12.60;99.90
19755;DHT22;10036;47.812;9.274;2023-02-22T13:57:36;12.60;99.90
19755;DHT22;10036;47.812;9.274;2023-02-22T14:00:37;12.70;99.90
19755;DHT22;10036;47.812;9.274;2023-02-22T14:03:16;12.80;99.90
19755;DHT22;10036;47.812;9.274;2023-02-22T14:05:54;12.80;99.90
19755;DHT22;10036;47.812;9.274;2023-02-22T14:08:52;12.90;99.90
19755;DHT22;10036;47.812;9.274;2023-02-22T14:11:43;13.10;99.90
19755;DHT22;10036;47.812;9.274;2023-02-22T14:14:18;13.20;99.90
19755;DHT22;10036;47.812;9.274;2023-02-22T14:17:16;13.30;99.90
19755;DHT22;10036;47.812;9.274;2023-02-22T14:20:02;13.40;99.90
19755;DHT22;10036;47.812;9.274;2023-02-22T14:22:30;13.40;99.90
19755;DHT22;10036;47.812;9.274;2023-02-22T14:24:57;13.40;99.90
19755;DHT22;10036;47.812;9.274;2023-02-22T14:27:24;13.30;99.90
19755;DHT22;10036;47.812;9.274;2023-02-22T14:30:20;13.10;99.90
19755;DHT22;10036;47.812;9.274;2023-02-22T14:32:50;13.10;99.90
19755;DHT22;10036;47.812;9.274;2023-02-22T14:35:18;13.10;99.90
19755;DHT22;10036;47.812;9.274;2023-02-22T14:37:48;13.10;99.90
19755;DHT22;10036;47.812;9.274;2023-02-22T14:40:21;13.00;99.90
19755;DHT22;10036;47.812;9.274;2023-02-22T14:42:58;13.00;99.90
19755;DHT22;10036;47.812;9.274;2023-02-22T14:45:31;12.90;99.90
19755;DHT22;10036;47.812;9.274;2023-02-22T14:48:03;12.90;99.90
19755;DHT22;10036;47.812;9.274;2023-02-22T14:50:42;12.90;99.90
19755;DHT22;10036;47.812;9.274;2023-02-22T14:53:20;12.80;99.90
19755;DHT22;10036;47.812;9.274;2023-02-22T14:55:51;12.80;99.90
19755;DHT22;10036;47.812;9.274;2023-02-22T14:58:23;12.80;99.90
19755;DHT22;10036;47.812;9.274;2023-02-22T15:00:53;12.70;99.90
19755;DHT22;10036;47.812;9.274;2023-02-22T15:03:26;12.80;99.90
19755;DHT22;10036;47.812;9.274;2023-02-22T15:06:03;12.80;99.90
19755;DHT22;10036;47.812;9.274;2023-02-22T15:08:30;12.90;99.90
19755;DHT22;10036;47.812;9.274;2023-02-22T15:10:59;12.90;99.90
19755;DHT22;10036;47.812;9.274;2023-02-22T15:13:29;13.00;99.90
19755;DHT22;10036;47.812;9.274;2023-02-22T15:16:00;13.00;99.90
19755;DHT22;10036;47.812;9.274;2023-02-22T15:18:31;13.00;99.90
19755;DHT22;10036;47.812;9.274;2023-02-22T15:21:05;12.90;99.90
19755;DHT22;10036;47.812;9.274;2023-02-22T15:23:40;12.90;99.90
19755;DHT22;10036;47.812;9.274;2023-02-22T15:26:15;12.90;99.90
19755;DHT22;10036;47.812;9.274;2023-02-22T15:28:42;12.80;99.90
19755;DHT22;10036;47.812;9.274;2023-02-22T15:31:16;12.70;99.90
19755;DHT22;10036;47.812;9.274;2023-02-22T15:33:44;12.70;99.90
19755;DHT22;10036;47.812;9.274;2023-02-22T15:36:14;12.60;99.90
19755;DHT22;10036;47.812;9.274;2023-02-22T15:38:46;12.60;99.90
19755;DHT22;10036;47.812;9.274;2023-02-22T15:41:21;12.60;99.90
19755;DHT22;10036;47.812;9.274;2023-02-22T15:44:06;12.60;99.90
19755;DHT22;10036;47.812;9.274;2023-02-22T15:46:37;12.40;99.90
19755;DHT22;10036;47.812;9.274;2023-02-22T15:49:22;12.60;99.90
19755;DHT22;10036;47.812;9.274;2023-02-22T15:52:03;12.60;99.90
19755;DHT22;10036;47.812;9.274;2023-02-22T15:54:41;12.50;99.90
19755;DHT22;10036;47.812;9.274;2023-02-22T15:57:08;12.50;99.90
19755;DHT22;10036;47.812;9.274;2023-02-22T15:59:42;12.50;99.90
19755;DHT22;10036;47.812;9.274;2023-02-22T16:02:28;12.40;99.90
19755;DHT22;10036;47.812;9.274;2023-02-22T16:04:58;12.40;99.90
19755;DHT22;10036;47.812;9.274;2023-02-22T16:07:25;12.40;99.90
19755;DHT22;10036;47.812;9.274;2023-02-22T16:09:52;12.50;99.90
19755;DHT22;10036;47.812;9.274;2023-02-22T16:12:25;12.40;99.90
19755;DHT22;10036;47.812;9.274;2023-02-22T16:14:52;12.30;99.90
19755;DHT22;10036;47.812;9.274;2023-02-22T16:17:33;12.20;99.90
19755;DHT22;10036;47.812;9.274;2023-02-22T16:20:01;12.20;99.90
19755;DHT22;10036;47.812;9.274;2023-02-22T16:22:50;12.20;99.90
19755;DHT22;10036;47.812;9.274;2023-02-22T16:25:25;12.30;99.90